Tribes Hill, New York
Current Conditions -  °F | °C
As of 1:15 PM on Thursday 27 Nov 2014 (Local Time) from KNY0 Reporting Station
Overcast Overcast  
Wind Chill: -3°   Ceiling: 600
Heat Index: -3°   Visibility: 3mi
Dew Point: -4°   Wind: 0mph
Humidity: 92%   Direction: NA
Pressure: 29.97"   Gusts: NA
Location:  42.95°N, 74.3°W
Report Text: KNY0 271815Z AUTO 00000KT 3SM BKN006 OVC011 M03/M04 A2997 RMK AO2 T10261038
Loading
Personal Weather Stations






























Interactive Weather Map New forecast layout! Learn more

10-Day Weather Forecast

Advertisements
Track Severe Weather on mobile